createdAt,value
2022-08-28T00:01:03.044Z,62.40
2022-08-28T00:03:30.362Z,62.70
2022-08-28T00:06:00.327Z,62.90
2022-08-28T00:08:27.428Z,63.00
2022-08-28T00:10:54.615Z,63.00
2022-08-28T00:13:23.315Z,63.10
2022-08-28T00:15:58.114Z,64.10
2022-08-28T00:18:25.668Z,63.40
2022-08-28T00:20:53.444Z,63.20
2022-08-28T00:23:21.251Z,63.40
2022-08-28T00:25:48.204Z,63.50
2022-08-28T00:28:23.686Z,63.60
2022-08-28T00:30:58.780Z,63.70
2022-08-28T00:33:29.949Z,63.80
2022-08-28T00:35:57.770Z,63.80
2022-08-28T00:38:27.071Z,63.90
2022-08-28T00:40:58.223Z,64.00
2022-08-28T00:43:38.458Z,64.00
2022-08-28T00:46:11.717Z,64.10
2022-08-28T00:48:40.044Z,64.10
2022-08-28T00:51:26.576Z,64.10
2022-08-28T00:53:58.947Z,64.10
2022-08-28T00:56:27.561Z,64.40
2022-08-28T00:58:56.842Z,64.30
2022-08-28T01:01:24.288Z,64.40
2022-08-28T01:03:51.177Z,64.60
2022-08-28T01:06:20.637Z,64.50
2022-08-28T01:08:50.429Z,64.50
2022-08-28T01:11:19.382Z,64.70
2022-08-28T01:13:47.013Z,64.80
2022-08-28T01:16:16.328Z,64.90
2022-08-28T01:18:43.921Z,64.90
2022-08-28T01:21:20.466Z,65.00
2022-08-28T01:23:58.465Z,64.80
2022-08-28T01:26:28.187Z,65.00
2022-08-28T01:28:58.390Z,64.90
2022-08-28T01:31:26.882Z,65.10
2022-08-28T01:33:53.739Z,65.10
2022-08-28T01:36:20.607Z,65.00
2022-08-28T01:38:56.429Z,65.10
2022-08-28T01:41:23.279Z,65.30
2022-08-28T01:43:50.062Z,65.00
2022-08-28T01:46:17.413Z,65.00
2022-08-28T01:48:44.755Z,65.10
2022-08-28T01:51:12.967Z,65.10
2022-08-28T01:53:41.476Z,65.20
2022-08-28T01:56:14.678Z,65.40
2022-08-28T01:58:41.761Z,65.70
2022-08-28T02:01:13.640Z,65.70
2022-08-28T02:03:43.254Z,65.70
2022-08-28T02:06:11.072Z,65.80
2022-08-28T02:08:37.998Z,65.80
2022-08-28T02:11:06.477Z,65.90
2022-08-28T02:13:35.040Z,65.90
2022-08-28T02:16:02.270Z,65.90
2022-08-28T02:18:29.074Z,66.00
2022-08-28T02:20:56.124Z,66.10
2022-08-28T02:23:23.066Z,66.30
2022-08-28T02:25:49.931Z,66.30
2022-08-28T02:28:17.757Z,66.30
2022-08-28T02:30:44.697Z,66.40
2022-08-28T02:33:11.550Z,67.00
2022-08-28T02:35:40.245Z,66.10
2022-08-28T02:38:07.080Z,66.30
2022-08-28T02:40:33.981Z,66.40
2022-08-28T02:43:00.907Z,66.60
2022-08-28T02:45:27.707Z,66.60
2022-08-28T02:47:57.384Z,66.60
2022-08-28T02:50:24.226Z,66.60
2022-08-28T02:52:52.334Z,66.60
2022-08-28T02:55:20.295Z,66.80
2022-08-28T02:57:48.569Z,66.90
2022-08-28T03:00:22.651Z,66.60
2022-08-28T03:02:53.013Z,66.90
2022-08-28T03:05:22.276Z,66.60
2022-08-28T03:07:50.057Z,66.50
2022-08-28T03:10:17.241Z,66.60
2022-08-28T03:12:44.071Z,66.60
2022-08-28T03:15:11.398Z,66.60
2022-08-28T03:17:38.386Z,66.70
2022-08-28T03:20:08.279Z,66.80
2022-08-28T03:22:53.762Z,67.00
2022-08-28T03:25:22.259Z,67.00
2022-08-28T03:27:49.717Z,67.10
2022-08-28T03:30:17.200Z,67.30
2022-08-28T03:32:46.557Z,67.30
2022-08-28T03:35:13.399Z,67.50
2022-08-28T03:37:40.712Z,67.50
2022-08-28T03:40:09.286Z,67.30
2022-08-28T03:42:36.295Z,67.30
2022-08-28T03:45:05.298Z,68.30
2022-08-28T03:47:32.118Z,67.60
2022-08-28T03:49:59.079Z,67.70
2022-08-28T03:52:26.424Z,67.30
2022-08-28T03:54:53.248Z,67.50
2022-08-28T03:57:22.528Z,67.30
2022-08-28T03:59:51.398Z,67.40
2022-08-28T04:02:20.632Z,67.40
2022-08-28T04:04:49.015Z,67.40
2022-08-28T04:07:16.938Z,67.10
2022-08-28T04:09:43.790Z,67.30
2022-08-28T04:12:10.849Z,67.50
2022-08-28T04:14:38.051Z,67.70
2022-08-28T04:17:06.212Z,67.70
2022-08-28T04:19:33.658Z,68.00
2022-08-28T04:22:01.325Z,68.00
2022-08-28T04:24:28.274Z,68.10
2022-08-28T04:26:55.188Z,68.20
2022-08-28T04:29:23.489Z,68.30
2022-08-28T04:31:50.570Z,68.30
2022-08-28T04:34:18.016Z,68.20
2022-08-28T04:36:46.074Z,68.30
2022-08-28T04:39:13.205Z,68.40
2022-08-28T04:41:41.196Z,68.40
2022-08-28T04:44:08.817Z,68.50
2022-08-28T04:46:36.632Z,68.70
2022-08-28T04:49:04.651Z,68.90
2022-08-28T04:51:32.220Z,68.90
2022-08-28T04:53:59.259Z,68.80
2022-08-28T04:56:26.875Z,68.80
2022-08-28T04:58:53.799Z,68.50
2022-08-28T05:01:27.144Z,68.70
2022-08-28T05:03:59.617Z,69.00
2022-08-28T05:06:29.077Z,69.10
2022-08-28T05:08:58.455Z,68.80
2022-08-28T05:11:34.147Z,69.00
2022-08-28T05:14:04.429Z,69.30
2022-08-28T05:16:32.881Z,69.40
2022-08-28T05:19:01.322Z,69.40
2022-08-28T05:21:28.313Z,69.50
2022-08-28T05:23:57.625Z,69.50
2022-08-28T05:26:26.780Z,69.60
2022-08-28T05:28:56.242Z,69.70
2022-08-28T05:31:24.530Z,69.70
2022-08-28T05:33:52.699Z,69.90
2022-08-28T05:36:22.622Z,69.90
2022-08-28T05:38:50.782Z,70.10
2022-08-28T05:41:25.252Z,70.10
2022-08-28T05:43:54.071Z,70.10
2022-08-28T05:46:22.336Z,70.10
2022-08-28T05:48:49.482Z,71.20
2022-08-28T05:51:19.535Z,70.50
2022-08-28T05:53:49.986Z,70.50
2022-08-28T05:56:23.651Z,70.60
2022-08-28T05:58:50.739Z,70.60
2022-08-28T06:01:23.873Z,70.60
2022-08-28T06:03:57.875Z,70.80
2022-08-28T06:06:26.919Z,70.80
2022-08-28T06:08:59.320Z,70.90
2022-08-28T06:11:30.645Z,71.20
2022-08-28T06:14:01.549Z,71.10
2022-08-28T06:16:29.819Z,71.20
2022-08-28T06:18:57.834Z,71.20
2022-08-28T06:21:24.818Z,71.30
2022-08-28T06:23:51.934Z,71.30
2022-08-28T06:26:18.931Z,71.40
2022-08-28T06:28:45.892Z,71.40
2022-08-28T06:31:24.714Z,71.30
2022-08-28T06:33:58.542Z,71.40
2022-08-28T06:36:27.810Z,71.30
2022-08-28T06:38:58.163Z,71.40
2022-08-28T06:41:25.674Z,71.30
2022-08-28T06:43:52.409Z,71.40
2022-08-28T06:46:19.930Z,71.40
2022-08-28T06:48:46.704Z,71.50
2022-08-28T06:51:13.806Z,71.30
2022-08-28T06:53:43.008Z,71.30
2022-08-28T06:56:26.465Z,71.40
2022-08-28T06:58:56.882Z,71.40
2022-08-28T07:01:29.118Z,71.30
2022-08-28T07:03:59.579Z,71.30
2022-08-28T07:06:27.696Z,71.10
2022-08-28T07:08:54.831Z,71.00
2022-08-28T07:11:28.865Z,70.90
2022-08-28T07:13:56.554Z,70.80
2022-08-28T07:16:30.233Z,70.70
2022-08-28T07:19:02.674Z,70.70
2022-08-28T07:21:31.071Z,70.50
2022-08-28T07:23:58.094Z,70.40
2022-08-28T07:26:26.244Z,70.40
2022-08-28T07:29:09.514Z,71.10
2022-08-28T07:31:42.725Z,71.70
2022-08-28T07:34:11.320Z,70.30
2022-08-28T07:36:38.939Z,68.30
2022-08-28T07:39:07.616Z,65.70
2022-08-28T07:41:37.379Z,63.40
2022-08-28T07:44:22.890Z,61.70
2022-08-28T07:46:54.384Z,59.90
2022-08-28T07:49:21.539Z,57.70
2022-08-28T07:51:48.255Z,56.90
2022-08-28T07:54:17.796Z,56.20
2022-08-28T07:56:46.079Z,55.00
2022-08-28T07:59:16.732Z,54.30
2022-08-28T08:01:46.563Z,54.30
2022-08-28T08:04:16.020Z,54.00
2022-08-28T08:06:43.874Z,53.50
2022-08-28T08:09:13.432Z,53.30
2022-08-28T08:11:40.752Z,52.40
2022-08-28T08:14:08.299Z,52.80
2022-08-28T08:16:38.691Z,52.40
2022-08-28T08:19:05.985Z,52.40
2022-08-28T08:21:32.784Z,52.40
2022-08-28T08:23:59.617Z,51.90
2022-08-28T08:26:28.680Z,52.60
2022-08-28T08:28:56.179Z,51.70
2022-08-28T08:31:26.776Z,52.00
2022-08-28T08:33:56.961Z,51.80
2022-08-28T08:36:26.595Z,52.20
2022-08-28T08:38:59.262Z,52.80
2022-08-28T08:41:34.672Z,52.10
2022-08-28T08:44:12.754Z,51.80
2022-08-28T08:47:19.666Z,51.60
2022-08-28T08:49:55.517Z,52.20
2022-08-28T08:52:34.390Z,52.40
2022-08-28T08:55:16.479Z,52.10
2022-08-28T08:57:49.115Z,52.10
2022-08-28T09:00:17.185Z,51.90
2022-08-28T09:02:55.920Z,52.30
2022-08-28T09:05:37.552Z,52.40
2022-08-28T09:08:25.862Z,52.70
2022-08-28T09:11:03.467Z,52.80
2022-08-28T09:13:54.629Z,52.70
2022-08-28T09:16:37.864Z,53.60
2022-08-28T09:19:05.151Z,51.80
2022-08-28T09:21:34.673Z,51.40
2022-08-28T09:24:05.484Z,51.00
2022-08-28T09:26:33.219Z,50.30
2022-08-28T09:29:14.701Z,49.90
2022-08-28T09:31:41.894Z,49.70
2022-08-28T09:34:23.815Z,49.70
2022-08-28T09:36:52.433Z,50.20
2022-08-28T09:39:20.908Z,49.80
2022-08-28T09:42:17.173Z,50.30
2022-08-28T09:45:01.983Z,50.60
2022-08-28T09:47:51.434Z,50.50
2022-08-28T09:50:37.533Z,49.60
2022-08-28T09:53:10.230Z,49.50
2022-08-28T09:55:59.100Z,49.20
2022-08-28T09:58:35.358Z,47.60
2022-08-28T10:01:22.336Z,47.60
2022-08-28T10:04:02.000Z,48.10
2022-08-28T10:06:35.003Z,48.20
2022-08-28T10:09:21.718Z,47.70
2022-08-28T10:12:03.843Z,47.80
2022-08-28T10:15:00.951Z,48.40
2022-08-28T10:17:33.805Z,48.50
2022-08-28T10:20:26.583Z,48.10
2022-08-28T10:23:06.702Z,47.30
2022-08-28T10:26:10.152Z,46.40
2022-08-28T10:28:52.679Z,46.40
2022-08-28T10:31:40.506Z,46.50
2022-08-28T10:34:33.051Z,46.80
2022-08-28T10:37:06.698Z,46.80
2022-08-28T10:39:43.905Z,47.10
2022-08-28T10:42:11.003Z,47.00
2022-08-28T10:44:40.877Z,47.20
2022-08-28T10:47:10.204Z,47.30
2022-08-28T10:49:47.343Z,46.80
2022-08-28T10:52:28.149Z,46.40
2022-08-28T10:54:57.735Z,46.00
2022-08-28T10:57:31.136Z,45.90
2022-08-28T11:00:00.637Z,45.90
2022-08-28T11:02:29.949Z,45.90
2022-08-28T11:04:58.753Z,45.30
2022-08-28T11:07:44.919Z,45.10
2022-08-28T11:10:20.051Z,45.40
2022-08-28T11:12:49.322Z,45.10
2022-08-28T11:15:45.913Z,45.30
2022-08-28T11:18:19.115Z,45.70
2022-08-28T11:21:14.428Z,45.90
2022-08-28T11:24:03.520Z,46.50
2022-08-28T11:26:40.889Z,45.90
2022-08-28T11:29:08.118Z,45.40
2022-08-28T11:31:38.589Z,44.90
2022-08-28T11:34:06.263Z,44.30
2022-08-28T11:36:33.031Z,44.40
2022-08-28T11:39:04.918Z,43.70
2022-08-28T11:41:39.735Z,43.30
2022-08-28T11:44:09.530Z,42.80
2022-08-28T11:46:50.365Z,42.80
2022-08-28T11:49:32.299Z,42.50
2022-08-28T11:52:20.806Z,42.80
2022-08-28T11:55:12.378Z,42.20
2022-08-28T12:00:54.018Z,41.10
2022-08-28T12:03:26.524Z,41.90
2022-08-28T12:05:56.900Z,41.30
2022-08-28T12:08:46.877Z,41.70
2022-08-28T12:11:41.893Z,42.40
2022-08-28T12:14:33.339Z,42.10
2022-08-28T12:17:00.021Z,40.80
2022-08-28T12:19:55.588Z,41.40
2022-08-28T12:22:26.468Z,41.50
2022-08-28T12:24:58.738Z,40.80
2022-08-28T12:27:26.940Z,40.20
2022-08-28T12:29:57.190Z,40.00
2022-08-28T12:32:40.771Z,40.10
2022-08-28T12:35:29.499Z,40.40
2022-08-28T12:37:57.410Z,40.50
2022-08-28T12:40:32.030Z,40.90
2022-08-28T12:43:07.989Z,41.00
2022-08-28T12:45:48.956Z,41.20
2022-08-28T12:48:21.974Z,41.00
2022-08-28T12:51:06.634Z,40.70
2022-08-28T12:53:45.345Z,41.00
2022-08-28T12:56:15.943Z,41.10
2022-08-28T12:58:44.297Z,40.40
2022-08-28T13:01:21.344Z,40.40
2022-08-28T13:03:52.333Z,40.10
2022-08-28T13:06:38.935Z,39.20
2022-08-28T13:09:18.309Z,39.50
2022-08-28T13:11:49.152Z,39.00
2022-08-28T13:14:35.510Z,38.90
2022-08-28T13:17:02.424Z,38.80
2022-08-28T13:19:32.082Z,39.30
2022-08-28T13:22:20.236Z,39.20
2022-08-28T13:24:48.150Z,39.10
2022-08-28T13:27:15.737Z,38.20
2022-08-28T13:30:04.158Z,38.20
2022-08-28T13:32:36.688Z,38.80
2022-08-28T13:35:05.878Z,38.40
2022-08-28T13:37:43.856Z,38.40
2022-08-28T13:40:30.284Z,38.10
2022-08-28T13:43:11.126Z,37.80
2022-08-28T13:45:43.199Z,37.70
2022-08-28T13:48:19.251Z,38.10
2022-08-28T13:50:49.960Z,38.40
2022-08-28T13:53:19.923Z,38.50
2022-08-28T13:55:48.400Z,38.40
2022-08-28T13:58:16.223Z,38.10
2022-08-28T14:00:46.245Z,38.30
2022-08-28T14:03:31.670Z,37.80
2022-08-28T14:05:58.530Z,37.70
2022-08-28T14:08:25.319Z,37.50
2022-08-28T14:10:52.412Z,37.50
2022-08-28T14:13:19.925Z,37.60
2022-08-28T14:15:47.484Z,37.50
2022-08-28T14:18:14.368Z,37.10
2022-08-28T14:20:41.176Z,37.10
2022-08-28T14:23:11.446Z,36.90
2022-08-28T14:25:43.900Z,36.60
2022-08-28T14:28:11.921Z,36.00
2022-08-28T14:30:43.956Z,35.20
2022-08-28T14:33:11.334Z,34.80
2022-08-28T14:35:40.699Z,35.00
2022-08-28T14:38:08.825Z,34.80
2022-08-28T14:40:38.372Z,35.20
2022-08-28T14:43:06.818Z,35.00
2022-08-28T14:45:34.316Z,34.70
2022-08-28T14:48:01.173Z,34.80
2022-08-28T14:50:28.090Z,34.80
2022-08-28T14:52:54.924Z,34.70
2022-08-28T14:55:21.685Z,34.90
2022-08-28T14:57:48.933Z,34.70
2022-08-28T15:00:18.208Z,34.60
2022-08-28T15:02:45.040Z,34.60
2022-08-28T15:05:11.946Z,34.60
2022-08-28T15:07:38.838Z,34.50
2022-08-28T15:10:06.042Z,34.30
2022-08-28T15:12:32.923Z,34.10
2022-08-28T15:14:59.864Z,34.00
2022-08-28T15:17:34.149Z,33.80
2022-08-28T15:20:01.931Z,34.00
2022-08-28T15:22:28.682Z,34.10
2022-08-28T15:24:55.596Z,34.20
2022-08-28T15:27:22.597Z,34.20
2022-08-28T15:29:49.772Z,34.50
2022-08-28T15:32:16.557Z,34.70
2022-08-28T15:34:44.283Z,34.90
2022-08-28T15:37:11.174Z,35.20
2022-08-28T15:40:01.887Z,35.90
2022-08-28T15:42:29.858Z,36.80
2022-08-28T15:44:57.058Z,37.30
2022-08-28T15:47:25.036Z,37.00
2022-08-28T15:49:56.230Z,37.10
2022-08-28T15:52:24.780Z,37.20
2022-08-28T15:54:51.506Z,37.20
2022-08-28T15:57:18.642Z,37.20
2022-08-28T15:59:49.568Z,37.20
2022-08-28T16:02:19.534Z,37.40
2022-08-28T16:04:46.616Z,37.30
2022-08-28T16:07:13.376Z,37.30
2022-08-28T16:09:40.262Z,37.30
2022-08-28T16:12:07.192Z,37.40
2022-08-28T16:14:34.168Z,37.40
2022-08-28T16:17:05.938Z,37.30
2022-08-28T16:19:42.694Z,37.30
2022-08-28T16:22:12.080Z,37.70
2022-08-28T16:24:39.046Z,37.90
2022-08-28T16:27:09.503Z,37.70
2022-08-28T16:29:40.010Z,37.80
2022-08-28T16:32:06.860Z,38.80
2022-08-28T16:34:34.846Z,38.50
2022-08-28T16:37:03.797Z,38.80
2022-08-28T16:39:30.663Z,38.80
2022-08-28T16:41:57.488Z,39.00
2022-08-28T16:44:26.160Z,39.30
2022-08-28T16:46:54.255Z,39.20
2022-08-28T16:49:22.349Z,39.50
2022-08-28T16:51:49.337Z,39.70
2022-08-28T16:54:18.208Z,39.90
2022-08-28T16:56:45.633Z,40.10
2022-08-28T16:59:16.411Z,40.20
2022-08-28T17:01:43.477Z,40.30
2022-08-28T17:04:10.485Z,40.50
2022-08-28T17:06:37.387Z,40.60
2022-08-28T17:09:04.227Z,40.60
2022-08-28T17:11:31.075Z,40.70
2022-08-28T17:13:59.121Z,40.90
2022-08-28T17:16:28.729Z,41.00
2022-08-28T17:18:55.560Z,41.10
2022-08-28T17:21:41.122Z,41.10
2022-08-28T17:24:09.130Z,41.20
2022-08-28T17:26:35.997Z,41.30
2022-08-28T17:29:03.314Z,41.50
2022-08-28T17:31:30.267Z,41.70
2022-08-28T17:33:57.259Z,41.80
2022-08-28T17:36:33.081Z,42.00
2022-08-28T17:39:06.135Z,42.20
2022-08-28T17:41:33.830Z,42.50
2022-08-28T17:44:01.397Z,42.60
2022-08-28T17:46:28.508Z,42.80
2022-08-28T17:48:56.431Z,43.00
2022-08-28T17:51:42.499Z,43.20
2022-08-28T17:54:13.138Z,43.50
2022-08-28T17:56:40.367Z,43.70
2022-08-28T17:59:07.768Z,43.80
2022-08-28T18:01:34.723Z,44.10
2022-08-28T18:04:01.498Z,44.60
2022-08-28T18:06:28.344Z,44.80
2022-08-28T18:08:55.195Z,44.70
2022-08-28T18:11:22.030Z,45.00
2022-08-28T18:13:48.921Z,45.20
2022-08-28T18:16:18.912Z,45.40
2022-08-28T18:18:45.707Z,45.70
2022-08-28T18:21:13.371Z,45.70
2022-08-28T18:23:40.941Z,46.00
2022-08-28T18:26:08.301Z,46.30
2022-08-28T18:28:35.190Z,46.40
2022-08-28T18:31:02.717Z,46.60
2022-08-28T18:33:29.713Z,47.40
2022-08-28T18:35:56.688Z,47.20
2022-08-28T18:38:28.681Z,47.30
2022-08-28T18:40:57.387Z,47.80
2022-08-28T18:43:24.912Z,47.90
2022-08-28T18:45:51.915Z,48.20
2022-08-28T18:48:19.831Z,48.40
2022-08-28T18:50:48.299Z,48.60
2022-08-28T18:53:17.138Z,48.80
2022-08-28T18:55:45.864Z,49.00
2022-08-28T18:58:15.471Z,49.10
2022-08-28T19:00:43.742Z,49.30
2022-08-28T19:03:11.182Z,49.30
2022-08-28T19:05:39.268Z,49.50
2022-08-28T19:08:06.617Z,49.60
2022-08-28T19:10:35.370Z,49.70
2022-08-28T19:13:04.932Z,49.60
2022-08-28T19:15:32.821Z,49.80
2022-08-28T19:18:00.735Z,49.80
2022-08-28T19:20:28.972Z,49.90
2022-08-28T19:22:57.740Z,49.90
2022-08-28T19:25:28.265Z,49.90
2022-08-28T19:27:59.629Z,49.70
2022-08-28T19:30:28.999Z,50.00
2022-08-28T19:32:55.877Z,50.00
2022-08-28T19:35:24.820Z,50.30
2022-08-28T19:37:52.767Z,50.10
2022-08-28T19:40:20.557Z,50.40
2022-08-28T19:42:47.834Z,50.60
2022-08-28T19:45:15.672Z,50.50
2022-08-28T19:47:42.519Z,50.60
2022-08-28T19:50:12.637Z,50.90
2022-08-28T19:52:40.123Z,51.20
2022-08-28T19:55:07.981Z,51.40
2022-08-28T19:57:35.438Z,51.30
2022-08-28T20:00:03.555Z,51.50
2022-08-28T20:02:30.305Z,51.70
2022-08-28T20:04:57.540Z,51.60
2022-08-28T20:07:24.981Z,52.10
2022-08-28T20:09:52.364Z,51.80
2022-08-28T20:12:19.803Z,51.90
2022-08-28T20:14:46.915Z,52.20
2022-08-28T20:17:14.159Z,52.20
2022-08-28T20:19:41.378Z,52.30
2022-08-28T20:22:09.316Z,52.20
2022-08-28T20:24:37.255Z,52.60
2022-08-28T20:27:04.188Z,52.80
2022-08-28T20:29:31.506Z,52.80
2022-08-28T20:31:58.411Z,52.60
2022-08-28T20:34:25.391Z,52.50
2022-08-28T20:36:52.557Z,52.70
2022-08-28T20:39:20.553Z,52.90
2022-08-28T20:41:48.163Z,53.10
2022-08-28T20:44:18.241Z,53.20
2022-08-28T20:46:51.044Z,53.60
2022-08-28T20:49:21.983Z,53.20
2022-08-28T20:52:00.746Z,53.30
2022-08-28T20:54:32.586Z,53.50
2022-08-28T20:57:02.472Z,53.80
2022-08-28T20:59:37.132Z,53.90
2022-08-28T21:02:10.520Z,54.90
2022-08-28T21:04:38.814Z,54.40
2022-08-28T21:07:05.921Z,54.10
2022-08-28T21:09:46.540Z,54.00
2022-08-28T21:12:19.891Z,53.90
2022-08-28T21:14:51.716Z,54.00
2022-08-28T21:17:29.088Z,54.30
2022-08-28T21:20:05.678Z,54.80
2022-08-28T21:22:34.557Z,54.90
2022-08-28T21:25:02.386Z,55.00
2022-08-28T21:27:29.862Z,55.30
2022-08-28T21:30:00.467Z,55.70
2022-08-28T21:32:29.463Z,55.70
2022-08-28T21:34:57.296Z,55.90
2022-08-28T21:37:26.879Z,55.90
2022-08-28T21:39:56.429Z,56.10
2022-08-28T21:42:24.447Z,56.30
2022-08-28T21:44:51.771Z,56.40
2022-08-28T21:47:22.886Z,56.40
2022-08-28T21:49:51.405Z,56.90
2022-08-28T21:52:19.655Z,57.00
2022-08-28T21:54:46.578Z,57.20
2022-08-28T21:57:13.854Z,57.20
2022-08-28T21:59:41.237Z,57.30
2022-08-28T22:02:08.204Z,57.30
2022-08-28T22:04:35.601Z,57.30
2022-08-28T22:07:02.330Z,57.30
2022-08-28T22:09:29.332Z,57.30
2022-08-28T22:11:56.136Z,57.40
2022-08-28T22:14:24.634Z,57.60
2022-08-28T22:16:51.511Z,57.60
2022-08-28T22:19:18.357Z,57.80
2022-08-28T22:22:03.744Z,57.80
2022-08-28T22:24:30.567Z,57.80
2022-08-28T22:26:57.538Z,57.90
2022-08-28T22:29:25.482Z,57.80
2022-08-28T22:31:52.772Z,58.10
2022-08-28T22:34:19.762Z,58.30
2022-08-28T22:36:46.991Z,58.40
2022-08-28T22:39:14.218Z,58.50
2022-08-28T22:41:41.823Z,58.70
2022-08-28T22:44:08.880Z,58.70
2022-08-28T22:46:35.987Z,58.80
2022-08-28T22:49:02.979Z,59.00
2022-08-28T22:51:30.034Z,59.10
2022-08-28T22:53:56.925Z,59.30
2022-08-28T22:56:23.935Z,59.40
2022-08-28T22:58:51.083Z,59.50
2022-08-28T23:01:21.449Z,59.50
2022-08-28T23:03:48.417Z,59.70
2022-08-28T23:06:15.466Z,59.50
2022-08-28T23:08:43.006Z,59.50
2022-08-28T23:11:10.996Z,59.60
2022-08-28T23:13:38.032Z,59.60
2022-08-28T23:16:05.722Z,59.60
2022-08-28T23:18:51.945Z,59.70
2022-08-28T23:21:21.121Z,60.00
2022-08-28T23:23:51.466Z,59.90
2022-08-28T23:26:21.727Z,60.20
2022-08-28T23:28:48.591Z,60.20
2022-08-28T23:31:15.407Z,60.90
2022-08-28T23:33:42.542Z,59.90
2022-08-28T23:36:10.596Z,61.00
2022-08-28T23:38:42.829Z,60.30
2022-08-28T23:41:11.093Z,60.40
2022-08-28T23:43:38.239Z,60.20
2022-08-28T23:46:06.368Z,60.40
2022-08-28T23:48:33.363Z,60.20
2022-08-28T23:51:02.164Z,60.30
2022-08-28T23:53:29.390Z,60.00
2022-08-28T23:55:59.570Z,60.30
2022-08-28T23:58:31.870Z,60.30
